sensor_id;sensor_type;location;lat;lon;timestamp;P1;durP1;ratioP1;P2;durP2;ratioP2
76599;SDS011;65489;52.048;6.090;2023-02-11T00:01:43;2.60;;;1.85;;
76599;SDS011;65489;52.048;6.090;2023-02-11T00:04:08;3.60;;;2.50;;
76599;SDS011;65489;52.048;6.090;2023-02-11T00:06:34;2.80;;;2.03;;
76599;SDS011;65489;52.048;6.090;2023-02-11T00:09:00;2.78;;;2.05;;
76599;SDS011;65489;52.048;6.090;2023-02-11T00:11:27;2.33;;;1.88;;
76599;SDS011;65489;52.048;6.090;2023-02-11T00:13:54;2.45;;;2.05;;
76599;SDS011;65489;52.048;6.090;2023-02-11T00:16:24;3.33;;;1.92;;
76599;SDS011;65489;52.048;6.090;2023-02-11T00:18:50;2.88;;;1.90;;
76599;SDS011;65489;52.048;6.090;2023-02-11T00:21:18;2.30;;;1.67;;
76599;SDS011;65489;52.048;6.090;2023-02-11T00:23:49;2.13;;;1.55;;
76599;SDS011;65489;52.048;6.090;2023-02-11T00:26:15;3.42;;;1.95;;
76599;SDS011;65489;52.048;6.090;2023-02-11T00:28:47;2.83;;;1.88;;
76599;SDS011;65489;52.048;6.090;2023-02-11T00:31:13;2.40;;;1.88;;
76599;SDS011;65489;52.048;6.090;2023-02-11T00:33:40;3.47;;;2.10;;
76599;SDS011;65489;52.048;6.090;2023-02-11T00:36:07;2.85;;;1.90;;
76599;SDS011;65489;52.048;6.090;2023-02-11T00:38:33;1.95;;;1.42;;
76599;SDS011;65489;52.048;6.090;2023-02-11T00:40:59;2.08;;;1.67;;
76599;SDS011;65489;52.048;6.090;2023-02-11T00:43:24;2.13;;;1.60;;
76599;SDS011;65489;52.048;6.090;2023-02-11T00:45:50;2.45;;;1.58;;
76599;SDS011;65489;52.048;6.090;2023-02-11T00:48:15;2.40;;;1.70;;
76599;SDS011;65489;52.048;6.090;2023-02-11T00:50:40;1.90;;;1.50;;
76599;SDS011;65489;52.048;6.090;2023-02-11T00:53:06;1.88;;;1.52;;
76599;SDS011;65489;52.048;6.090;2023-02-11T00:55:31;2.83;;;1.60;;
76599;SDS011;65489;52.048;6.090;2023-02-11T00:57:57;1.83;;;1.42;;
76599;SDS011;65489;52.048;6.090;2023-02-11T01:00:24;2.40;;;1.42;;
76599;SDS011;65489;52.048;6.090;2023-02-11T01:02:50;2.90;;;1.70;;
76599;SDS011;65489;52.048;6.090;2023-02-11T01:05:16;2.20;;;1.58;;
76599;SDS011;65489;52.048;6.090;2023-02-11T01:07:42;2.38;;;1.58;;
76599;SDS011;65489;52.048;6.090;2023-02-11T01:10:07;2.08;;;1.42;;
76599;SDS011;65489;52.048;6.090;2023-02-11T01:12:33;3.00;;;1.60;;
76599;SDS011;65489;52.048;6.090;2023-02-11T01:14:58;2.53;;;1.60;;
76599;SDS011;65489;52.048;6.090;2023-02-11T01:17:24;1.98;;;1.60;;
76599;SDS011;65489;52.048;6.090;2023-02-11T01:19:52;1.73;;;1.17;;
76599;SDS011;65489;52.048;6.090;2023-02-11T01:22:18;2.35;;;1.40;;
76599;SDS011;65489;52.048;6.090;2023-02-11T01:24:45;1.70;;;1.20;;
76599;SDS011;65489;52.048;6.090;2023-02-11T01:27:11;1.45;;;1.17;;
76599;SDS011;65489;52.048;6.090;2023-02-11T01:29:36;2.75;;;1.50;;
76599;SDS011;65489;52.048;6.090;2023-02-11T01:32:02;2.63;;;1.35;;
76599;SDS011;65489;52.048;6.090;2023-02-11T01:34:28;2.42;;;1.20;;
76599;SDS011;65489;52.048;6.090;2023-02-11T01:36:59;2.25;;;1.48;;
76599;SDS011;65489;52.048;6.090;2023-02-11T01:39:27;1.75;;;1.48;;
76599;SDS011;65489;52.048;6.090;2023-02-11T01:41:53;3.65;;;1.60;;
76599;SDS011;65489;52.048;6.090;2023-02-11T01:44:22;2.05;;;1.40;;
76599;SDS011;65489;52.048;6.090;2023-02-11T01:46:52;2.30;;;1.50;;
76599;SDS011;65489;52.048;6.090;2023-02-11T01:49:20;1.70;;;1.10;;
76599;SDS011;65489;52.048;6.090;2023-02-11T01:54:48;2.88;;;1.25;;
76599;SDS011;65489;52.048;6.090;2023-02-11T01:57:34;2.20;;;1.42;;
76599;SDS011;65489;52.048;6.090;2023-02-11T02:00:19;2.22;;;1.20;;
76599;SDS011;65489;52.048;6.090;2023-02-11T02:05:45;1.60;;;1.10;;
76599;SDS011;65489;52.048;6.090;2023-02-11T02:08:35;2.13;;;1.13;;
76599;SDS011;65489;52.048;6.090;2023-02-11T02:11:03;2.92;;;1.13;;
76599;SDS011;65489;52.048;6.090;2023-02-11T02:13:30;1.42;;;1.05;;
76599;SDS011;65489;52.048;6.090;2023-02-11T02:15:58;1.52;;;1.00;;
76599;SDS011;65489;52.048;6.090;2023-02-11T02:21:19;2.33;;;1.33;;
76599;SDS011;65489;52.048;6.090;2023-02-11T02:38:22;1.23;;;0.90;;
76599;SDS011;65489;52.048;6.090;2023-02-11T02:43:33;1.30;;;0.82;;
76599;SDS011;65489;52.048;6.090;2023-02-11T02:48:37;1.73;;;0.88;;
76599;SDS011;65489;52.048;6.090;2023-02-11T02:51:22;1.85;;;0.90;;
76599;SDS011;65489;52.048;6.090;2023-02-11T02:54:20;1.65;;;1.10;;
76599;SDS011;65489;52.048;6.090;2023-02-11T03:04:51;1.67;;;0.90;;
76599;SDS011;65489;52.048;6.090;2023-02-11T03:10:13;1.95;;;0.98;;
76599;SDS011;65489;52.048;6.090;2023-02-11T03:12:41;2.03;;;1.10;;
76599;SDS011;65489;52.048;6.090;2023-02-11T03:15:08;1.70;;;1.00;;
76599;SDS011;65489;52.048;6.090;2023-02-11T03:17:36;1.58;;;0.95;;
76599;SDS011;65489;52.048;6.090;2023-02-11T03:20:05;1.30;;;0.88;;
76599;SDS011;65489;52.048;6.090;2023-02-11T03:23:34;1.40;;;0.98;;
76599;SDS011;65489;52.048;6.090;2023-02-11T03:25:40;1.55;;;0.82;;
76599;SDS011;65489;52.048;6.090;2023-02-11T03:28:17;2.70;;;1.02;;
76599;SDS011;65489;52.048;6.090;2023-02-11T03:30:52;2.33;;;1.20;;
76599;SDS011;65489;52.048;6.090;2023-02-11T03:33:24;2.30;;;1.05;;
76599;SDS011;65489;52.048;6.090;2023-02-11T03:38:42;1.52;;;0.90;;
76599;SDS011;65489;52.048;6.090;2023-02-11T03:41:10;1.23;;;0.85;;
76599;SDS011;65489;52.048;6.090;2023-02-11T03:43:39;1.42;;;0.88;;
76599;SDS011;65489;52.048;6.090;2023-02-11T03:46:08;1.25;;;0.70;;
76599;SDS011;65489;52.048;6.090;2023-02-11T03:48:35;1.42;;;1.00;;
76599;SDS011;65489;52.048;6.090;2023-02-11T03:51:04;1.83;;;1.05;;
76599;SDS011;65489;52.048;6.090;2023-02-11T03:53:31;1.45;;;0.95;;
76599;SDS011;65489;52.048;6.090;2023-02-11T03:55:57;1.52;;;0.98;;
76599;SDS011;65489;52.048;6.090;2023-02-11T03:58:24;0.80;;;0.60;;
76599;SDS011;65489;52.048;6.090;2023-02-11T04:00:49;1.95;;;1.10;;
76599;SDS011;65489;52.048;6.090;2023-02-11T04:03:15;1.95;;;0.80;;
76599;SDS011;65489;52.048;6.090;2023-02-11T04:05:40;1.45;;;0.80;;
76599;SDS011;65489;52.048;6.090;2023-02-11T04:08:06;1.92;;;0.88;;
76599;SDS011;65489;52.048;6.090;2023-02-11T04:10:31;1.42;;;0.90;;
76599;SDS011;65489;52.048;6.090;2023-02-11T04:12:57;1.92;;;0.80;;
76599;SDS011;65489;52.048;6.090;2023-02-11T04:15:23;1.00;;;0.80;;
76599;SDS011;65489;52.048;6.090;2023-02-11T04:17:48;1.65;;;1.08;;
76599;SDS011;65489;52.048;6.090;2023-02-11T04:20:14;2.85;;;1.02;;
76599;SDS011;65489;52.048;6.090;2023-02-11T04:22:40;1.90;;;0.95;;
76599;SDS011;65489;52.048;6.090;2023-02-11T04:25:05;1.17;;;0.70;;
76599;SDS011;65489;52.048;6.090;2023-02-11T04:27:31;1.40;;;1.02;;
76599;SDS011;65489;52.048;6.090;2023-02-11T04:29:56;1.45;;;0.95;;
76599;SDS011;65489;52.048;6.090;2023-02-11T04:32:22;2.28;;;0.75;;
76599;SDS011;65489;52.048;6.090;2023-02-11T04:34:47;1.48;;;0.80;;
76599;SDS011;65489;52.048;6.090;2023-02-11T04:37:13;1.20;;;1.00;;
76599;SDS011;65489;52.048;6.090;2023-02-11T04:39:38;0.95;;;0.70;;
76599;SDS011;65489;52.048;6.090;2023-02-11T04:42:04;1.88;;;1.00;;
76599;SDS011;65489;52.048;6.090;2023-02-11T04:44:29;2.25;;;0.85;;
76599;SDS011;65489;52.048;6.090;2023-02-11T04:46:55;1.85;;;0.70;;
76599;SDS011;65489;52.048;6.090;2023-02-11T04:49:20;1.52;;;0.85;;
76599;SDS011;65489;52.048;6.090;2023-02-11T04:51:46;1.88;;;1.30;;
76599;SDS011;65489;52.048;6.090;2023-02-11T04:54:11;3.47;;;1.17;;
76599;SDS011;65489;52.048;6.090;2023-02-11T04:56:37;1.67;;;0.80;;
76599;SDS011;65489;52.048;6.090;2023-02-11T04:59:03;1.80;;;1.10;;
76599;SDS011;65489;52.048;6.090;2023-02-11T05:01:29;1.23;;;0.70;;
76599;SDS011;65489;52.048;6.090;2023-02-11T05:03:54;1.52;;;0.80;;
76599;SDS011;65489;52.048;6.090;2023-02-11T05:06:20;1.73;;;0.82;;
76599;SDS011;65489;52.048;6.090;2023-02-11T05:08:46;1.20;;;0.80;;
76599;SDS011;65489;52.048;6.090;2023-02-11T05:11:21;2.60;;;1.10;;
76599;SDS011;65489;52.048;6.090;2023-02-11T05:13:48;2.60;;;1.17;;
76599;SDS011;65489;52.048;6.090;2023-02-11T05:16:14;1.15;;;0.70;;
76599;SDS011;65489;52.048;6.090;2023-02-11T05:18:40;1.00;;;0.73;;
76599;SDS011;65489;52.048;6.090;2023-02-11T05:21:07;1.85;;;0.98;;
76599;SDS011;65489;52.048;6.090;2023-02-11T05:23:34;1.30;;;0.90;;
76599;SDS011;65489;52.048;6.090;2023-02-11T05:25:59;0.93;;;0.60;;
76599;SDS011;65489;52.048;6.090;2023-02-11T05:28:26;1.73;;;0.80;;
76599;SDS011;65489;52.048;6.090;2023-02-11T05:30:51;1.75;;;0.77;;
76599;SDS011;65489;52.048;6.090;2023-02-11T05:33:17;1.50;;;0.90;;
76599;SDS011;65489;52.048;6.090;2023-02-11T05:35:42;1.13;;;0.80;;
76599;SDS011;65489;52.048;6.090;2023-02-11T05:38:08;1.85;;;0.95;;
76599;SDS011;65489;52.048;6.090;2023-02-11T05:40:33;1.55;;;0.90;;
76599;SDS011;65489;52.048;6.090;2023-02-11T05:42:59;1.13;;;0.75;;
76599;SDS011;65489;52.048;6.090;2023-02-11T05:45:24;1.38;;;1.00;;
76599;SDS011;65489;52.048;6.090;2023-02-11T05:47:50;1.55;;;0.82;;
76599;SDS011;65489;52.048;6.090;2023-02-11T05:50:16;2.65;;;1.10;;
76599;SDS011;65489;52.048;6.090;2023-02-11T05:52:41;1.30;;;0.80;;
76599;SDS011;65489;52.048;6.090;2023-02-11T05:55:07;2.45;;;1.25;;
76599;SDS011;65489;52.048;6.090;2023-02-11T05:57:32;2.30;;;1.20;;
76599;SDS011;65489;52.048;6.090;2023-02-11T05:59:58;2.47;;;1.20;;
76599;SDS011;65489;52.048;6.090;2023-02-11T06:02:23;1.42;;;0.90;;
76599;SDS011;65489;52.048;6.090;2023-02-11T06:04:49;1.38;;;0.90;;
76599;SDS011;65489;52.048;6.090;2023-02-11T06:07:14;1.23;;;0.98;;
76599;SDS011;65489;52.048;6.090;2023-02-11T06:09:41;2.08;;;1.15;;
76599;SDS011;65489;52.048;6.090;2023-02-11T06:12:07;1.38;;;1.08;;
76599;SDS011;65489;52.048;6.090;2023-02-11T06:14:32;1.52;;;1.05;;
76599;SDS011;65489;52.048;6.090;2023-02-11T06:16:58;2.85;;;1.30;;
76599;SDS011;65489;52.048;6.090;2023-02-11T06:19:24;3.03;;;1.38;;
76599;SDS011;65489;52.048;6.090;2023-02-11T06:21:49;2.33;;;1.48;;
76599;SDS011;65489;52.048;6.090;2023-02-11T06:24:15;1.85;;;1.00;;
76599;SDS011;65489;52.048;6.090;2023-02-11T06:26:40;1.33;;;0.75;;
76599;SDS011;65489;52.048;6.090;2023-02-11T06:29:06;1.85;;;1.25;;
76599;SDS011;65489;52.048;6.090;2023-02-11T06:31:31;1.83;;;1.17;;
76599;SDS011;65489;52.048;6.090;2023-02-11T06:33:59;1.52;;;0.93;;
76599;SDS011;65489;52.048;6.090;2023-02-11T06:36:25;1.42;;;0.90;;
76599;SDS011;65489;52.048;6.090;2023-02-11T06:38:50;1.27;;;0.80;;
76599;SDS011;65489;52.048;6.090;2023-02-11T06:41:17;2.00;;;1.30;;
76599;SDS011;65489;52.048;6.090;2023-02-11T06:43:46;2.25;;;1.10;;
76599;SDS011;65489;52.048;6.090;2023-02-11T06:46:12;3.00;;;1.42;;
76599;SDS011;65489;52.048;6.090;2023-02-11T06:48:38;1.27;;;1.00;;
76599;SDS011;65489;52.048;6.090;2023-02-11T06:51:07;1.00;;;0.70;;
76599;SDS011;65489;52.048;6.090;2023-02-11T06:53:41;1.88;;;1.20;;
76599;SDS011;65489;52.048;6.090;2023-02-11T06:56:08;3.00;;;1.55;;
76599;SDS011;65489;52.048;6.090;2023-02-11T06:58:35;1.95;;;1.10;;
76599;SDS011;65489;52.048;6.090;2023-02-11T07:01:04;1.40;;;0.90;;
76599;SDS011;65489;52.048;6.090;2023-02-11T07:03:31;1.48;;;1.00;;
76599;SDS011;65489;52.048;6.090;2023-02-11T07:06:01;1.98;;;1.00;;
76599;SDS011;65489;52.048;6.090;2023-02-11T07:08:27;1.83;;;1.05;;
76599;SDS011;65489;52.048;6.090;2023-02-11T07:10:53;1.48;;;1.00;;
76599;SDS011;65489;52.048;6.090;2023-02-11T07:13:18;1.45;;;0.82;;
76599;SDS011;65489;52.048;6.090;2023-02-11T07:15:44;2.13;;;0.90;;
76599;SDS011;65489;52.048;6.090;2023-02-11T07:18:09;1.88;;;1.10;;
76599;SDS011;65489;52.048;6.090;2023-02-11T07:20:35;2.35;;;1.23;;
76599;SDS011;65489;52.048;6.090;2023-02-11T07:23:02;3.58;;;1.40;;
76599;SDS011;65489;52.048;6.090;2023-02-11T07:25:28;1.92;;;1.10;;
76599;SDS011;65489;52.048;6.090;2023-02-11T07:27:53;1.48;;;0.88;;
76599;SDS011;65489;52.048;6.090;2023-02-11T07:30:19;2.10;;;1.20;;
76599;SDS011;65489;52.048;6.090;2023-02-11T07:32:44;1.50;;;0.95;;
76599;SDS011;65489;52.048;6.090;2023-02-11T07:35:10;2.10;;;1.00;;
76599;SDS011;65489;52.048;6.090;2023-02-11T07:37:35;1.70;;;0.95;;
76599;SDS011;65489;52.048;6.090;2023-02-11T07:40:01;1.48;;;0.90;;
76599;SDS011;65489;52.048;6.090;2023-02-11T07:42:26;4.40;;;1.83;;
76599;SDS011;65489;52.048;6.090;2023-02-11T07:44:52;2.00;;;1.35;;
76599;SDS011;65489;52.048;6.090;2023-02-11T07:47:17;3.03;;;1.80;;
76599;SDS011;65489;52.048;6.090;2023-02-11T07:49:44;1.63;;;1.08;;
76599;SDS011;65489;52.048;6.090;2023-02-11T07:52:09;2.75;;;1.48;;
76599;SDS011;65489;52.048;6.090;2023-02-11T07:54:35;2.70;;;1.65;;
76599;SDS011;65489;52.048;6.090;2023-02-11T07:57:00;5.47;;;2.00;;
76599;SDS011;65489;52.048;6.090;2023-02-11T07:59:26;3.13;;;1.27;;
76599;SDS011;65489;52.048;6.090;2023-02-11T08:01:51;1.92;;;1.20;;
76599;SDS011;65489;52.048;6.090;2023-02-11T08:04:17;2.28;;;1.63;;
76599;SDS011;65489;52.048;6.090;2023-02-11T08:06:42;3.17;;;1.63;;
76599;SDS011;65489;52.048;6.090;2023-02-11T08:09:09;4.13;;;1.70;;
76599;SDS011;65489;52.048;6.090;2023-02-11T08:11:38;2.45;;;1.20;;
76599;SDS011;65489;52.048;6.090;2023-02-11T08:14:03;2.65;;;1.80;;
76599;SDS011;65489;52.048;6.090;2023-02-11T08:16:33;2.78;;;1.58;;
76599;SDS011;65489;52.048;6.090;2023-02-11T08:19:00;2.20;;;1.23;;
76599;SDS011;65489;52.048;6.090;2023-02-11T08:21:28;3.72;;;1.00;;
76599;SDS011;65489;52.048;6.090;2023-02-11T08:23:54;2.83;;;1.80;;
76599;SDS011;65489;52.048;6.090;2023-02-11T08:26:21;3.25;;;1.80;;
76599;SDS011;65489;52.048;6.090;2023-02-11T08:28:48;2.55;;;1.50;;
76599;SDS011;65489;52.048;6.090;2023-02-11T08:31:16;1.92;;;1.20;;
76599;SDS011;65489;52.048;6.090;2023-02-11T08:33:43;1.20;;;0.90;;
76599;SDS011;65489;52.048;6.090;2023-02-11T08:36:20;3.10;;;1.88;;
76599;SDS011;65489;52.048;6.090;2023-02-11T08:38:47;3.72;;;2.00;;
76599;SDS011;65489;52.048;6.090;2023-02-11T08:41:16;1.95;;;1.30;;
76599;SDS011;65489;52.048;6.090;2023-02-11T08:43:42;2.22;;;1.10;;
76599;SDS011;65489;52.048;6.090;2023-02-11T08:46:09;3.63;;;1.33;;
76599;SDS011;65489;52.048;6.090;2023-02-11T08:48:37;3.17;;;1.40;;
76599;SDS011;65489;52.048;6.090;2023-02-11T08:51:06;2.40;;;1.63;;
76599;SDS011;65489;52.048;6.090;2023-02-11T08:53:32;2.20;;;1.52;;
76599;SDS011;65489;52.048;6.090;2023-02-11T08:55:58;1.88;;;1.30;;
76599;SDS011;65489;52.048;6.090;2023-02-11T08:58:27;1.75;;;1.20;;
76599;SDS011;65489;52.048;6.090;2023-02-11T09:00:53;3.15;;;1.60;;
76599;SDS011;65489;52.048;6.090;2023-02-11T09:03:18;2.83;;;1.60;;
76599;SDS011;65489;52.048;6.090;2023-02-11T09:05:44;3.03;;;1.35;;
76599;SDS011;65489;52.048;6.090;2023-02-11T09:08:12;3.03;;;1.60;;
76599;SDS011;65489;52.048;6.090;2023-02-11T09:13:07;2.97;;;1.65;;
76599;SDS011;65489;52.048;6.090;2023-02-11T09:15:33;3.17;;;1.60;;
76599;SDS011;65489;52.048;6.090;2023-02-11T09:17:59;2.05;;;1.30;;
76599;SDS011;65489;52.048;6.090;2023-02-11T09:20:25;3.05;;;1.17;;
76599;SDS011;65489;52.048;6.090;2023-02-11T09:22:51;1.77;;;1.30;;
76599;SDS011;65489;52.048;6.090;2023-02-11T09:25:18;3.72;;;1.98;;
76599;SDS011;65489;52.048;6.090;2023-02-11T09:27:44;1.77;;;1.25;;
76599;SDS011;65489;52.048;6.090;2023-02-11T09:30:09;2.50;;;1.63;;
76599;SDS011;65489;52.048;6.090;2023-02-11T09:32:35;4.10;;;2.42;;
76599;SDS011;65489;52.048;6.090;2023-02-11T09:35:01;4.95;;;2.25;;
76599;SDS011;65489;52.048;6.090;2023-02-11T09:37:26;2.00;;;1.35;;
76599;SDS011;65489;52.048;6.090;2023-02-11T09:39:52;1.65;;;1.40;;
76599;SDS011;65489;52.048;6.090;2023-02-11T09:42:22;2.63;;;1.50;;
76599;SDS011;65489;52.048;6.090;2023-02-11T09:45:10;3.28;;;2.13;;
76599;SDS011;65489;52.048;6.090;2023-02-11T09:47:46;2.03;;;1.55;;
76599;SDS011;65489;52.048;6.090;2023-02-11T09:50:15;1.52;;;1.13;;
76599;SDS011;65489;52.048;6.090;2023-02-11T09:52:57;2.75;;;1.30;;
76599;SDS011;65489;52.048;6.090;2023-02-11T09:58:10;2.05;;;1.50;;
76599;SDS011;65489;52.048;6.090;2023-02-11T10:00:45;2.55;;;1.58;;
76599;SDS011;65489;52.048;6.090;2023-02-11T10:11:34;2.28;;;1.30;;
76599;SDS011;65489;52.048;6.090;2023-02-11T10:14:17;3.72;;;1.73;;
76599;SDS011;65489;52.048;6.090;2023-02-11T10:19:50;2.00;;;1.30;;
76599;SDS011;65489;52.048;6.090;2023-02-11T10:22:21;2.88;;;1.92;;
76599;SDS011;65489;52.048;6.090;2023-02-11T10:24:55;3.50;;;1.90;;
76599;SDS011;65489;52.048;6.090;2023-02-11T10:27:29;1.92;;;1.15;;
76599;SDS011;65489;52.048;6.090;2023-02-11T10:30:02;2.38;;;1.20;;
76599;SDS011;65489;52.048;6.090;2023-02-11T10:32:54;3.25;;;1.90;;
76599;SDS011;65489;52.048;6.090;2023-02-11T10:35:23;2.45;;;1.45;;
76599;SDS011;65489;52.048;6.090;2023-02-11T10:37:51;2.10;;;1.30;;
76599;SDS011;65489;52.048;6.090;2023-02-11T10:40:20;1.45;;;1.02;;
76599;SDS011;65489;52.048;6.090;2023-02-11T10:42:52;3.28;;;1.98;;
76599;SDS011;65489;52.048;6.090;2023-02-11T10:45:32;3.37;;;1.90;;
76599;SDS011;65489;52.048;6.090;2023-02-11T10:48:02;2.30;;;1.35;;
76599;SDS011;65489;52.048;6.090;2023-02-11T10:50:32;3.30;;;1.17;;
76599;SDS011;65489;52.048;6.090;2023-02-11T10:55:54;2.08;;;1.30;;
76599;SDS011;65489;52.048;6.090;2023-02-11T10:58:28;2.53;;;1.30;;
76599;SDS011;65489;52.048;6.090;2023-02-11T11:00:58;2.47;;;1.33;;
76599;SDS011;65489;52.048;6.090;2023-02-11T11:03:35;1.60;;;1.15;;
76599;SDS011;65489;52.048;6.090;2023-02-11T11:06:04;1.80;;;1.00;;
76599;SDS011;65489;52.048;6.090;2023-02-11T11:08:47;1.52;;;1.02;;
76599;SDS011;65489;52.048;6.090;2023-02-11T11:18:52;4.88;;;2.22;;
76599;SDS011;65489;52.048;6.090;2023-02-11T11:24:13;2.10;;;1.50;;
76599;SDS011;65489;52.048;6.090;2023-02-11T11:26:44;2.10;;;1.30;;
76599;SDS011;65489;52.048;6.090;2023-02-11T11:29:32;2.85;;;1.30;;
76599;SDS011;65489;52.048;6.090;2023-02-11T11:32:42;2.00;;;1.10;;
76599;SDS011;65489;52.048;6.090;2023-02-11T11:34:53;2.40;;;1.63;;
76599;SDS011;65489;52.048;6.090;2023-02-11T11:37:31;3.95;;;1.48;;
76599;SDS011;65489;52.048;6.090;2023-02-11T11:42:41;2.83;;;1.70;;
76599;SDS011;65489;52.048;6.090;2023-02-11T11:47:53;3.25;;;1.60;;
76599;SDS011;65489;52.048;6.090;2023-02-11T11:50:36;3.15;;;1.45;;
76599;SDS011;65489;52.048;6.090;2023-02-11T11:53:08;4.53;;;1.95;;
76599;SDS011;65489;52.048;6.090;2023-02-11T11:55:43;8.15;;;2.83;;
76599;SDS011;65489;52.048;6.090;2023-02-11T11:58:17;5.85;;;2.35;;
76599;SDS011;65489;52.048;6.090;2023-02-11T12:06:07;5.18;;;2.00;;
76599;SDS011;65489;52.048;6.090;2023-02-11T12:25:24;5.00;;;2.47;;
76599;SDS011;65489;52.048;6.090;2023-02-11T12:28:09;4.60;;;2.05;;
76599;SDS011;65489;52.048;6.090;2023-02-11T12:31:11;5.18;;;1.48;;
76599;SDS011;65489;52.048;6.090;2023-02-11T12:36:28;4.30;;;1.92;;
76599;SDS011;65489;52.048;6.090;2023-02-11T12:52:44;5.25;;;2.08;;
76599;SDS011;65489;52.048;6.090;2023-02-11T12:55:21;3.92;;;1.52;;
76599;SDS011;65489;52.048;6.090;2023-02-11T12:57:47;4.15;;;1.50;;
76599;SDS011;65489;52.048;6.090;2023-02-11T13:00:16;3.97;;;1.60;;
76599;SDS011;65489;52.048;6.090;2023-02-11T13:02:55;3.63;;;1.77;;
76599;SDS011;65489;52.048;6.090;2023-02-11T13:05:38;4.45;;;1.80;;
76599;SDS011;65489;52.048;6.090;2023-02-11T13:10:46;4.82;;;1.80;;
76599;SDS011;65489;52.048;6.090;2023-02-11T13:13:18;3.05;;;1.30;;
76599;SDS011;65489;52.048;6.090;2023-02-11T13:15:50;2.78;;;1.48;;
76599;SDS011;65489;52.048;6.090;2023-02-11T13:18:23;3.15;;;1.58;;
76599;SDS011;65489;52.048;6.090;2023-02-11T13:27:00;3.03;;;1.42;;
76599;SDS011;65489;52.048;6.090;2023-02-11T13:35:37;5.05;;;1.60;;
76599;SDS011;65489;52.048;6.090;2023-02-11T13:38:04;2.55;;;1.63;;
76599;SDS011;65489;52.048;6.090;2023-02-11T13:40:32;3.30;;;1.85;;
76599;SDS011;65489;52.048;6.090;2023-02-11T13:43:03;4.60;;;1.50;;
76599;SDS011;65489;52.048;6.090;2023-02-11T13:45:34;3.17;;;1.40;;
76599;SDS011;65489;52.048;6.090;2023-02-11T13:48:06;6.80;;;1.65;;
76599;SDS011;65489;52.048;6.090;2023-02-11T13:50:44;3.15;;;1.33;;
76599;SDS011;65489;52.048;6.090;2023-02-11T13:53:12;2.53;;;1.33;;
76599;SDS011;65489;52.048;6.090;2023-02-11T13:55:37;4.28;;;1.67;;
76599;SDS011;65489;52.048;6.090;2023-02-11T14:22:02;1.48;;;0.90;;
76599;SDS011;65489;52.048;6.090;2023-02-11T14:26:57;2.67;;;1.40;;
76599;SDS011;65489;52.048;6.090;2023-02-11T14:40:22;2.17;;;1.30;;
76599;SDS011;65489;52.048;6.090;2023-02-11T14:42:56;1.75;;;1.02;;
76599;SDS011;65489;52.048;6.090;2023-02-11T14:45:34;1.70;;;1.20;;
76599;SDS011;65489;52.048;6.090;2023-02-11T14:50:33;2.97;;;1.38;;
76599;SDS011;65489;52.048;6.090;2023-02-11T14:53:14;2.30;;;1.50;;
76599;SDS011;65489;52.048;6.090;2023-02-11T14:55:43;2.28;;;1.60;;
76599;SDS011;65489;52.048;6.090;2023-02-11T14:58:18;2.75;;;1.40;;
76599;SDS011;65489;52.048;6.090;2023-02-11T15:03:29;3.42;;;1.10;;
76599;SDS011;65489;52.048;6.090;2023-02-11T15:08:27;1.02;;;0.88;;
76599;SDS011;65489;52.048;6.090;2023-02-11T15:10:54;1.85;;;0.77;;
76599;SDS011;65489;52.048;6.090;2023-02-11T15:13:21;2.08;;;0.90;;
76599;SDS011;65489;52.048;6.090;2023-02-11T15:15:54;2.30;;;1.20;;
76599;SDS011;65489;52.048;6.090;2023-02-11T15:18:25;2.67;;;0.90;;
76599;SDS011;65489;52.048;6.090;2023-02-11T15:20:57;4.40;;;0.98;;
76599;SDS011;65489;52.048;6.090;2023-02-11T15:23:23;3.53;;;0.80;;
76599;SDS011;65489;52.048;6.090;2023-02-11T15:25:50;2.30;;;1.05;;
76599;SDS011;65489;52.048;6.090;2023-02-11T15:28:24;1.42;;;0.90;;
76599;SDS011;65489;52.048;6.090;2023-02-11T15:30:58;3.28;;;1.23;;
76599;SDS011;65489;52.048;6.090;2023-02-11T15:33:38;1.08;;;0.75;;
76599;SDS011;65489;52.048;6.090;2023-02-11T15:36:03;1.13;;;0.70;;
76599;SDS011;65489;52.048;6.090;2023-02-11T15:38:29;3.40;;;1.10;;
76599;SDS011;65489;52.048;6.090;2023-02-11T15:40:56;2.25;;;0.98;;
76599;SDS011;65489;52.048;6.090;2023-02-11T15:45:56;1.27;;;0.68;;
76599;SDS011;65489;52.048;6.090;2023-02-11T15:48:33;1.73;;;1.00;;
76599;SDS011;65489;52.048;6.090;2023-02-11T15:51:01;1.45;;;0.88;;
76599;SDS011;65489;52.048;6.090;2023-02-11T15:53:32;1.33;;;0.90;;
76599;SDS011;65489;52.048;6.090;2023-02-11T15:56:03;3.55;;;0.90;;
76599;SDS011;65489;52.048;6.090;2023-02-11T15:58:54;1.55;;;1.00;;
76599;SDS011;65489;52.048;6.090;2023-02-11T16:01:31;1.92;;;0.77;;
76599;SDS011;65489;52.048;6.090;2023-02-11T16:03:57;2.33;;;0.90;;
76599;SDS011;65489;52.048;6.090;2023-02-11T16:06:34;1.35;;;0.65;;
76599;SDS011;65489;52.048;6.090;2023-02-11T16:19:35;1.40;;;0.90;;
76599;SDS011;65489;52.048;6.090;2023-02-11T16:22:08;2.05;;;0.90;;
76599;SDS011;65489;52.048;6.090;2023-02-11T16:24:36;1.80;;;0.70;;
76599;SDS011;65489;52.048;6.090;2023-02-11T16:27:04;1.42;;;0.90;;
76599;SDS011;65489;52.048;6.090;2023-02-11T16:29:32;2.17;;;0.82;;
76599;SDS011;65489;52.048;6.090;2023-02-11T16:32:04;1.60;;;0.77;;
76599;SDS011;65489;52.048;6.090;2023-02-11T16:34:34;1.13;;;0.70;;
76599;SDS011;65489;52.048;6.090;2023-02-11T16:37:01;1.30;;;0.73;;
76599;SDS011;65489;52.048;6.090;2023-02-11T16:39:28;1.65;;;0.80;;
76599;SDS011;65489;52.048;6.090;2023-02-11T16:41:54;1.98;;;0.68;;
76599;SDS011;65489;52.048;6.090;2023-02-11T16:44:20;1.30;;;0.70;;
76599;SDS011;65489;52.048;6.090;2023-02-11T16:46:45;1.02;;;0.70;;
76599;SDS011;65489;52.048;6.090;2023-02-11T16:52:00;2.33;;;0.80;;
76599;SDS011;65489;52.048;6.090;2023-02-11T16:54:27;1.35;;;0.73;;
76599;SDS011;65489;52.048;6.090;2023-02-11T16:56:53;1.20;;;0.80;;
76599;SDS011;65489;52.048;6.090;2023-02-11T16:59:19;1.48;;;0.70;;
76599;SDS011;65489;52.048;6.090;2023-02-11T17:01:45;1.00;;;0.60;;
76599;SDS011;65489;52.048;6.090;2023-02-11T17:04:17;1.02;;;0.52;;
76599;SDS011;65489;52.048;6.090;2023-02-11T17:06:44;1.67;;;1.00;;
76599;SDS011;65489;52.048;6.090;2023-02-11T17:09:19;1.52;;;0.70;;
76599;SDS011;65489;52.048;6.090;2023-02-11T17:11:46;1.40;;;0.70;;
76599;SDS011;65489;52.048;6.090;2023-02-11T17:14:12;1.88;;;0.60;;
76599;SDS011;65489;52.048;6.090;2023-02-11T17:16:37;1.75;;;0.82;;
76599;SDS011;65489;52.048;6.090;2023-02-11T17:19:03;1.48;;;0.80;;
76599;SDS011;65489;52.048;6.090;2023-02-11T17:21:28;0.95;;;0.70;;
76599;SDS011;65489;52.048;6.090;2023-02-11T17:23:56;0.93;;;0.70;;
76599;SDS011;65489;52.048;6.090;2023-02-11T17:26:22;1.00;;;0.70;;
76599;SDS011;65489;52.048;6.090;2023-02-11T17:28:48;2.05;;;0.75;;
76599;SDS011;65489;52.048;6.090;2023-02-11T17:31:13;0.95;;;0.60;;
76599;SDS011;65489;52.048;6.090;2023-02-11T17:33:39;1.10;;;0.63;;
76599;SDS011;65489;52.048;6.090;2023-02-11T17:36:05;1.25;;;0.63;;
76599;SDS011;65489;52.048;6.090;2023-02-11T17:38:32;1.98;;;0.90;;
76599;SDS011;65489;52.048;6.090;2023-02-11T17:40:58;1.20;;;0.77;;
76599;SDS011;65489;52.048;6.090;2023-02-11T17:43:27;1.20;;;0.60;;
76599;SDS011;65489;52.048;6.090;2023-02-11T17:45:53;1.65;;;0.75;;
76599;SDS011;65489;52.048;6.090;2023-02-11T17:48:18;1.83;;;0.88;;
76599;SDS011;65489;52.048;6.090;2023-02-11T17:50:44;2.15;;;0.80;;
76599;SDS011;65489;52.048;6.090;2023-02-11T17:53:10;1.63;;;0.70;;
76599;SDS011;65489;52.048;6.090;2023-02-11T17:55:36;2.28;;;0.80;;
76599;SDS011;65489;52.048;6.090;2023-02-11T17:58:04;1.00;;;0.63;;
76599;SDS011;65489;52.048;6.090;2023-02-11T18:00:30;1.40;;;1.00;;
76599;SDS011;65489;52.048;6.090;2023-02-11T18:02:56;1.13;;;0.80;;
76599;SDS011;65489;52.048;6.090;2023-02-11T18:05:27;1.42;;;1.17;;
76599;SDS011;65489;52.048;6.090;2023-02-11T18:07:53;0.90;;;0.73;;
76599;SDS011;65489;52.048;6.090;2023-02-11T18:10:19;1.50;;;0.70;;